createdAt,value
2022-08-07T00:01:12.552Z,81.72
2022-08-07T00:03:48.789Z,79.84
2022-08-07T00:06:15.246Z,80.86
2022-08-07T00:08:44.323Z,83.03
2022-08-07T00:11:11.126Z,84.54
2022-08-07T00:13:44.741Z,86.90
2022-08-07T00:16:11.547Z,86.72
2022-08-07T00:18:43.800Z,86.30
2022-08-07T00:21:56.887Z,87.20
2022-08-07T00:23:56.714Z,86.33
2022-08-07T00:26:36.211Z,86.47
2022-08-07T00:29:09.687Z,88.94
2022-08-07T00:31:42.147Z,87.84
2022-08-07T00:34:09.315Z,88.31
2022-08-07T00:36:36.216Z,88.40
2022-08-07T00:39:05.121Z,87.59
2022-08-07T00:41:31.861Z,88.03
2022-08-07T00:44:03.706Z,88.71
2022-08-07T00:46:30.922Z,89.17
2022-08-07T00:49:03.005Z,90.58
2022-08-07T00:51:41.917Z,90.56
2022-08-07T00:54:16.385Z,91.83
2022-08-07T00:56:46.075Z,92.31
2022-08-07T00:59:16.338Z,93.27
2022-08-07T01:01:44.490Z,93.13
2022-08-07T01:04:11.239Z,92.68
2022-08-07T01:06:50.184Z,92.93
2022-08-07T01:10:03.999Z,92.80
2022-08-07T01:12:27.377Z,90.50
2022-08-07T01:14:49.389Z,86.92
2022-08-07T01:17:23.468Z,87.60
2022-08-07T01:19:54.263Z,88.69
2022-08-07T01:22:22.888Z,89.95
2022-08-07T01:24:55.935Z,89.70
2022-08-07T01:27:22.353Z,90.65
2022-08-07T01:29:50.578Z,90.03
2022-08-07T01:32:17.181Z,90.52
2022-08-07T01:34:47.207Z,88.79
2022-08-07T01:37:17.146Z,87.44
2022-08-07T01:39:46.870Z,87.72
2022-08-07T01:42:39.639Z,88.76
2022-08-07T01:45:00.218Z,87.18
2022-08-07T01:48:21.602Z,88.20
2022-08-07T01:50:13.111Z,89.95
2022-08-07T01:52:49.789Z,90.22
2022-08-07T01:55:24.140Z,91.11
2022-08-07T01:58:06.337Z,92.82
2022-08-07T02:00:38.772Z,92.27
2022-08-07T02:03:21.252Z,92.86
2022-08-07T02:05:59.408Z,93.10
2022-08-07T02:08:26.662Z,91.56
2022-08-07T02:10:55.365Z,92.01
2022-08-07T02:13:56.709Z,93.31
2022-08-07T02:16:12.048Z,94.81
2022-08-07T02:18:38.505Z,94.83
2022-08-07T02:21:13.796Z,96.04
2022-08-07T02:23:42.903Z,96.28
2022-08-07T02:26:32.366Z,95.80
2022-08-07T02:28:57.451Z,96.17
2022-08-07T02:31:28.781Z,96.28
2022-08-07T02:34:03.611Z,95.33
2022-08-07T02:36:32.974Z,95.18
2022-08-07T02:38:59.929Z,94.88
2022-08-07T02:41:33.316Z,96.41
2022-08-07T02:44:03.610Z,97.94
2022-08-07T02:46:31.449Z,97.14
2022-08-07T02:48:58.091Z,97.52
2022-08-07T02:51:42.953Z,95.10
2022-08-07T02:54:10.860Z,96.57
2022-08-07T02:56:39.658Z,96.18
2022-08-07T02:59:09.594Z,97.09
2022-08-07T03:01:39.973Z,98.79
2022-08-07T03:04:07.814Z,99.98
2022-08-07T03:06:39.847Z,100.00
2022-08-07T03:09:07.457Z,99.35
2022-08-07T03:11:38.650Z,99.89
2022-08-07T03:14:05.918Z,98.28
2022-08-07T03:16:32.567Z,97.74
2022-08-07T03:18:59.490Z,97.57
2022-08-07T03:21:27.429Z,95.88
2022-08-07T03:24:17.909Z,96.97
2022-08-07T03:26:51.262Z,97.19
2022-08-07T03:29:25.025Z,95.84
2022-08-07T03:31:53.988Z,97.16
2022-08-07T03:34:22.860Z,97.10
2022-08-07T03:36:53.780Z,96.21
2022-08-07T03:39:59.402Z,95.59
2022-08-07T03:42:06.617Z,97.66
2022-08-07T03:44:36.217Z,96.20
2022-08-07T03:47:13.802Z,95.95
2022-08-07T03:49:41.203Z,93.93
2022-08-07T03:52:07.554Z,94.03
2022-08-07T03:54:54.476Z,94.32
2022-08-07T03:58:33.395Z,94.48
2022-08-07T04:00:09.016Z,94.63
2022-08-07T04:02:36.950Z,96.13
2022-08-07T04:05:07.961Z,97.33
2022-08-07T04:07:42.374Z,97.60
2022-08-07T04:10:15.767Z,98.90
2022-08-07T04:12:45.829Z,99.40
2022-08-07T04:15:13.673Z,98.63
2022-08-07T04:18:58.299Z,99.12
2022-08-07T04:20:28.686Z,97.95
2022-08-07T04:23:01.315Z,98.51
2022-08-07T04:25:28.990Z,98.57
2022-08-07T04:27:58.968Z,97.84
2022-08-07T04:30:39.527Z,97.28
2022-08-07T04:33:13.799Z,96.86
2022-08-07T04:35:40.443Z,95.30
2022-08-07T04:38:07.909Z,95.93
2022-08-07T04:40:34.854Z,97.41
2022-08-07T04:43:03.631Z,94.21
2022-08-07T04:45:57.750Z,89.12
2022-08-07T04:48:24.168Z,89.40
2022-08-07T04:50:51.975Z,88.95
2022-08-07T04:54:00.973Z,86.97
2022-08-07T04:58:15.943Z,84.80
2022-08-07T05:00:10.654Z,80.68
2022-08-07T05:02:16.662Z,77.60
2022-08-07T05:04:50.228Z,79.11
2022-08-07T05:07:23.302Z,77.53
2022-08-07T05:09:58.431Z,76.16
2022-08-07T05:12:32.306Z,74.15
2022-08-07T05:15:23.638Z,72.79
2022-08-07T05:17:55.243Z,71.10
2022-08-07T05:20:26.853Z,72.08
2022-08-07T05:22:54.747Z,71.65
2022-08-07T05:25:25.810Z,72.54
2022-08-07T05:28:20.568Z,71.29
2022-08-07T05:30:49.602Z,70.34
2022-08-07T05:33:18.058Z,69.15
2022-08-07T05:35:47.851Z,69.45
2022-08-07T05:38:59.452Z,68.38
2022-08-07T05:41:01.325Z,68.28
2022-08-07T05:43:50.059Z,66.23
2022-08-07T05:46:26.416Z,69.02
2022-08-07T05:48:57.403Z,68.28
2022-08-07T05:51:25.726Z,70.16
2022-08-07T05:54:12.731Z,68.85
2022-08-07T05:56:44.340Z,66.91
2022-08-07T05:59:14.545Z,68.21
2022-08-07T06:01:40.927Z,69.02
2022-08-07T06:04:07.315Z,68.03
2022-08-07T06:06:34.048Z,68.37
2022-08-07T06:09:04.388Z,68.92
2022-08-07T06:11:31.462Z,68.32
2022-08-07T06:14:11.595Z,67.36
2022-08-07T06:16:40.494Z,67.60
2022-08-07T06:19:06.861Z,66.67
2022-08-07T06:22:15.026Z,68.11
2022-08-07T06:24:46.178Z,67.61
2022-08-07T06:27:05.991Z,67.36
2022-08-07T06:29:34.452Z,66.11
2022-08-07T06:32:05.275Z,67.25
2022-08-07T06:34:31.657Z,66.64
2022-08-07T06:36:58.008Z,66.93
2022-08-07T06:40:17.916Z,65.41
2022-08-07T06:42:13.579Z,67.15
2022-08-07T06:44:39.971Z,66.72
2022-08-07T06:47:10.075Z,64.77
2022-08-07T06:49:51.752Z,64.20
2022-08-07T06:52:18.912Z,64.96
2022-08-07T06:55:32.147Z,64.17
2022-08-07T06:57:50.937Z,63.87
2022-08-07T07:00:18.695Z,64.22
2022-08-07T07:02:54.289Z,64.18
2022-08-07T07:06:03.376Z,62.90
2022-08-07T07:08:18.634Z,62.43
2022-08-07T07:10:56.802Z,61.65
2022-08-07T07:13:40.525Z,61.27
2022-08-07T07:16:18.038Z,62.42
2022-08-07T07:18:48.789Z,60.83
2022-08-07T07:21:19.241Z,60.47
2022-08-07T07:24:10.247Z,59.79
2022-08-07T07:26:36.950Z,59.13
2022-08-07T07:29:56.258Z,59.91
2022-08-07T07:31:52.518Z,58.76
2022-08-07T07:34:22.010Z,59.08
2022-08-07T07:36:57.951Z,59.91
2022-08-07T07:39:51.999Z,56.93
2022-08-07T07:42:25.677Z,57.76
2022-08-07T07:44:56.359Z,56.58
2022-08-07T07:47:23.614Z,57.08
2022-08-07T07:50:35.166Z,57.55
2022-08-07T07:52:37.650Z,58.04
2022-08-07T07:55:06.673Z,58.78
2022-08-07T07:57:51.455Z,60.33
2022-08-07T08:00:28.950Z,56.15
2022-08-07T08:03:06.049Z,56.89
2022-08-07T08:05:54.496Z,53.35
2022-08-07T08:08:34.394Z,55.84
2022-08-07T08:11:02.309Z,57.38
2022-08-07T08:13:33.269Z,53.34
2022-08-07T08:16:12.689Z,52.52
2022-08-07T08:18:39.409Z,53.20
2022-08-07T08:21:07.549Z,51.99
2022-08-07T08:23:53.534Z,55.52
2022-08-07T08:26:38.640Z,51.78
2022-08-07T08:29:05.179Z,51.36
2022-08-07T08:32:04.822Z,52.16
2022-08-07T08:34:27.242Z,50.34
2022-08-07T08:36:57.831Z,50.66
2022-08-07T08:39:25.079Z,50.18
2022-08-07T08:42:26.031Z,50.85
2022-08-07T08:44:52.350Z,51.18
2022-08-07T08:47:26.543Z,47.92
2022-08-07T08:50:04.875Z,49.50
2022-08-07T08:52:40.815Z,46.94
2022-08-07T08:55:20.797Z,50.53
2022-08-07T08:58:08.581Z,47.05
2022-08-07T09:00:51.835Z,45.04
2022-08-07T09:03:23.359Z,45.81
2022-08-07T09:06:11.490Z,44.53
2022-08-07T09:08:53.391Z,44.55
2022-08-07T09:11:24.364Z,48.78
2022-08-07T09:14:12.686Z,46.92
2022-08-07T09:16:42.701Z,46.47
2022-08-07T09:19:51.000Z,44.40
2022-08-07T09:24:28.863Z,44.58
2022-08-07T09:25:24.847Z,44.75
2022-08-07T09:28:00.331Z,43.64
2022-08-07T09:30:29.593Z,45.05
2022-08-07T09:32:59.137Z,44.14
2022-08-07T09:36:04.710Z,42.36
2022-08-07T09:38:59.538Z,42.36
2022-08-07T09:41:58.539Z,42.19
2022-08-07T09:44:58.726Z,42.66
2022-08-07T09:48:00.888Z,44.49
2022-08-07T09:50:45.552Z,42.96
2022-08-07T09:53:13.321Z,42.87
2022-08-07T09:56:03.135Z,45.80
2022-08-07T09:59:07.840Z,44.02
2022-08-07T10:01:58.983Z,44.13
2022-08-07T10:04:32.755Z,44.44
2022-08-07T10:07:26.285Z,44.92
2022-08-07T10:10:11.880Z,44.21
2022-08-07T10:12:58.091Z,42.62
2022-08-07T10:15:24.435Z,42.13
2022-08-07T10:18:08.521Z,42.17
2022-08-07T10:20:54.565Z,41.64
2022-08-07T10:24:06.069Z,40.65
2022-08-07T10:26:37.276Z,40.63
2022-08-07T10:29:11.435Z,41.54
2022-08-07T10:31:49.529Z,39.93
2022-08-07T10:34:18.498Z,41.42
2022-08-07T10:36:58.319Z,42.03
2022-08-07T10:39:41.923Z,38.25
2022-08-07T10:42:36.737Z,40.52
2022-08-07T10:45:11.945Z,42.83
2022-08-07T10:47:54.965Z,42.90
2022-08-07T10:50:26.557Z,43.89
2022-08-07T10:52:52.948Z,41.99
2022-08-07T10:55:38.690Z,43.27
2022-08-07T10:58:12.954Z,43.59
2022-08-07T11:01:02.679Z,44.91
2022-08-07T11:03:52.998Z,43.59
2022-08-07T11:06:40.218Z,44.53
2022-08-07T11:10:09.859Z,42.93
2022-08-07T11:12:31.523Z,43.00
2022-08-07T11:15:01.033Z,41.69
2022-08-07T11:17:43.394Z,45.29
2022-08-07T11:20:19.745Z,44.74
2022-08-07T11:22:51.482Z,40.38
2022-08-07T11:25:21.706Z,44.68
2022-08-07T11:28:01.300Z,41.98
2022-08-07T11:30:41.532Z,40.92
2022-08-07T11:33:17.643Z,41.44
2022-08-07T11:35:59.736Z,40.62
2022-08-07T11:38:30.665Z,41.92
2022-08-07T11:40:59.506Z,41.41
2022-08-07T11:43:41.677Z,41.63
2022-08-07T11:46:31.962Z,42.82
2022-08-07T11:49:51.420Z,41.84
2022-08-07T11:52:07.691Z,38.33
2022-08-07T11:54:54.773Z,38.71
2022-08-07T11:58:00.093Z,38.59
2022-08-07T12:00:19.271Z,37.47
2022-08-07T12:02:52.195Z,41.66
2022-08-07T12:05:48.878Z,39.31
2022-08-07T12:08:25.823Z,36.56
2022-08-07T12:11:21.056Z,38.19
2022-08-07T12:14:08.478Z,36.44
2022-08-07T12:16:36.731Z,38.69
2022-08-07T12:19:22.517Z,37.46
2022-08-07T12:22:36.190Z,37.91
2022-08-07T12:25:02.311Z,38.32
2022-08-07T12:28:09.502Z,36.96
2022-08-07T12:30:16.347Z,37.55
2022-08-07T12:33:01.844Z,36.33
2022-08-07T12:35:36.329Z,38.32
2022-08-07T12:38:10.353Z,39.00
2022-08-07T12:40:48.600Z,41.33
2022-08-07T12:44:02.069Z,42.53
2022-08-07T12:46:32.191Z,40.38
2022-08-07T12:49:09.765Z,42.31
2022-08-07T12:52:14.393Z,41.19
2022-08-07T12:55:05.317Z,38.72
2022-08-07T12:57:39.081Z,40.48
2022-08-07T13:00:33.027Z,40.37
2022-08-07T13:04:02.013Z,39.93
2022-08-07T13:06:54.366Z,40.84
2022-08-07T13:10:21.958Z,42.34
2022-08-07T13:12:36.357Z,38.50
2022-08-07T13:15:23.421Z,40.16
2022-08-07T13:18:08.651Z,36.79
2022-08-07T13:20:38.956Z,42.97
2022-08-07T13:24:00.073Z,37.90
2022-08-07T13:26:00.790Z,40.25
2022-08-07T13:28:48.135Z,37.60
2022-08-07T13:31:19.508Z,40.02
2022-08-07T13:34:34.509Z,37.32
2022-08-07T13:36:59.496Z,35.06
2022-08-07T13:40:33.244Z,35.17
2022-08-07T13:42:24.839Z,36.29
2022-08-07T13:44:55.267Z,34.48
2022-08-07T13:48:06.842Z,36.02
2022-08-07T13:50:32.842Z,34.79
2022-08-07T13:53:03.156Z,35.69
2022-08-07T13:55:29.537Z,38.34
2022-08-07T13:58:27.924Z,36.28
2022-08-07T14:00:58.552Z,36.70
2022-08-07T14:03:29.997Z,37.26
2022-08-07T14:06:11.956Z,33.35
2022-08-07T14:08:45.359Z,34.83
2022-08-07T14:11:17.398Z,36.30
2022-08-07T14:13:45.138Z,37.22
2022-08-07T14:16:16.120Z,38.60
2022-08-07T14:18:57.069Z,37.73
2022-08-07T14:22:01.396Z,37.78
2022-08-07T14:24:14.255Z,39.84
2022-08-07T14:26:50.328Z,36.86
2022-08-07T14:32:07.785Z,34.67
2022-08-07T14:34:34.235Z,34.57
2022-08-07T14:37:36.341Z,36.22
2022-08-07T14:40:17.598Z,39.10
2022-08-07T14:43:00.669Z,36.79
2022-08-07T14:45:46.482Z,36.37
2022-08-07T14:51:07.345Z,37.86
2022-08-07T14:54:08.892Z,35.15
2022-08-07T14:56:32.007Z,36.73
2022-08-07T15:01:53.398Z,37.65
2022-08-07T15:04:21.756Z,37.30
2022-08-07T15:06:51.633Z,37.76
2022-08-07T15:13:06.310Z,38.42
2022-08-07T15:14:57.980Z,40.25
2022-08-07T15:17:26.541Z,44.81
2022-08-07T15:25:36.925Z,38.68
2022-08-07T15:28:35.866Z,44.33
2022-08-07T15:31:05.393Z,41.62
2022-08-07T15:33:34.035Z,40.58
2022-08-07T15:36:05.070Z,40.25
2022-08-07T15:38:51.066Z,39.85
2022-08-07T15:41:23.461Z,39.10
2022-08-07T15:43:57.341Z,44.29
2022-08-07T15:46:31.785Z,41.95
2022-08-07T15:49:14.454Z,43.84
2022-08-07T15:54:26.402Z,48.69
2022-08-07T15:56:53.060Z,44.24
2022-08-07T15:59:20.239Z,44.22
2022-08-07T16:02:06.913Z,43.44
2022-08-07T16:04:35.788Z,44.21
2022-08-07T16:07:05.081Z,44.02
2022-08-07T16:09:52.971Z,46.91
2022-08-07T16:12:30.289Z,48.73
2022-08-07T16:15:05.581Z,50.08
2022-08-07T16:18:02.245Z,51.96
2022-08-07T16:20:33.478Z,49.40
2022-08-07T16:23:05.539Z,51.56
2022-08-07T16:25:56.755Z,52.46
2022-08-07T16:30:05.548Z,50.49
2022-08-07T16:31:51.329Z,50.89
2022-08-07T16:34:30.466Z,52.86
2022-08-07T16:37:03.067Z,54.21
2022-08-07T16:40:02.047Z,53.01
2022-08-07T16:42:47.763Z,53.75
2022-08-07T16:46:40.660Z,54.19
2022-08-07T16:48:27.824Z,53.65
2022-08-07T16:51:21.706Z,54.00
2022-08-07T16:54:19.023Z,54.02
2022-08-07T16:56:54.733Z,54.01
2022-08-07T16:59:46.064Z,55.87
2022-08-07T17:02:51.502Z,58.24
2022-08-07T17:06:28.470Z,58.66
2022-08-07T17:08:19.402Z,58.09
2022-08-07T17:10:54.193Z,58.68
2022-08-07T17:13:41.630Z,58.00
2022-08-07T17:16:20.338Z,59.52
2022-08-07T17:18:53.568Z,58.52
2022-08-07T17:21:24.033Z,58.74
2022-08-07T17:23:59.409Z,60.12
2022-08-07T17:26:59.551Z,57.34
2022-08-07T17:30:14.101Z,58.48
2022-08-07T17:32:30.595Z,58.99
2022-08-07T17:35:50.246Z,58.65
2022-08-07T17:38:32.232Z,57.53
2022-08-07T17:42:00.729Z,59.21
2022-08-07T17:44:02.726Z,57.72
2022-08-07T17:46:40.649Z,59.90
2022-08-07T17:49:14.894Z,58.37
2022-08-07T17:52:00.508Z,59.81
2022-08-07T17:54:53.010Z,58.12
2022-08-07T17:57:56.502Z,58.01
2022-08-07T18:00:33.666Z,58.24
2022-08-07T18:03:25.526Z,58.80
2022-08-07T18:06:06.679Z,59.81
2022-08-07T18:09:01.128Z,59.17
2022-08-07T18:12:16.092Z,60.87
2022-08-07T18:14:26.257Z,63.13
2022-08-07T18:16:59.005Z,61.62
2022-08-07T18:21:07.961Z,62.18
2022-08-07T18:22:26.444Z,60.37
2022-08-07T18:25:01.652Z,59.95
2022-08-07T18:27:55.030Z,62.87
2022-08-07T18:30:32.604Z,63.24
2022-08-07T18:33:15.627Z,64.09
2022-08-07T18:36:01.119Z,63.38
2022-08-07T18:38:58.567Z,63.48
2022-08-07T18:41:44.742Z,62.01
2022-08-07T18:44:30.737Z,64.39
2022-08-07T18:47:10.834Z,64.02
2022-08-07T18:50:31.877Z,61.86
2022-08-07T18:53:02.937Z,63.05
2022-08-07T18:55:41.649Z,62.14
2022-08-07T18:58:40.174Z,63.77
2022-08-07T19:02:17.215Z,65.32
2022-08-07T19:04:09.627Z,65.48
2022-08-07T19:06:53.237Z,63.70
2022-08-07T19:09:55.512Z,62.82
2022-08-07T19:12:10.487Z,62.43
2022-08-07T19:15:00.563Z,64.28
2022-08-07T19:17:59.333Z,61.39
2022-08-07T19:21:09.034Z,60.55
2022-08-07T19:23:58.537Z,62.23
2022-08-07T19:26:28.705Z,61.23
2022-08-07T19:30:57.101Z,62.94
2022-08-07T19:32:10.366Z,61.59
2022-08-07T19:34:34.065Z,61.79
2022-08-07T19:37:10.327Z,62.01
2022-08-07T19:39:57.810Z,63.65
2022-08-07T19:42:30.479Z,62.37
2022-08-07T19:44:58.873Z,61.52
2022-08-07T19:47:27.865Z,62.60
2022-08-07T19:49:58.249Z,61.90
2022-08-07T19:52:29.698Z,62.86
2022-08-07T19:54:58.136Z,62.27
2022-08-07T19:57:59.984Z,63.47
2022-08-07T20:00:27.948Z,63.78
2022-08-07T20:02:55.871Z,64.04
2022-08-07T20:05:29.843Z,62.90
2022-08-07T20:07:58.417Z,64.32
2022-08-07T20:10:51.976Z,62.23
2022-08-07T20:13:26.921Z,63.01
2022-08-07T20:15:55.258Z,61.42
2022-08-07T20:18:33.654Z,60.39
2022-08-07T20:21:42.212Z,61.91
2022-08-07T20:24:13.842Z,61.92
2022-08-07T20:26:45.010Z,63.80
2022-08-07T20:29:47.847Z,64.77
2022-08-07T20:32:11.607Z,65.09
2022-08-07T20:34:51.574Z,65.16
2022-08-07T20:37:25.221Z,66.08
2022-08-07T20:40:03.847Z,67.23
2022-08-07T20:42:31.282Z,67.98
2022-08-07T20:44:59.115Z,67.58
2022-08-07T20:47:55.244Z,67.67
2022-08-07T20:50:15.232Z,66.79
2022-08-07T20:52:51.458Z,66.70
2022-08-07T20:55:19.949Z,66.44
2022-08-07T20:58:02.430Z,66.51
2022-08-07T21:00:31.218Z,64.87
2022-08-07T21:02:57.993Z,64.98
2022-08-07T21:05:51.038Z,64.32
2022-08-07T21:08:14.653Z,64.55
2022-08-07T21:10:42.299Z,64.30
2022-08-07T21:13:11.358Z,65.70
2022-08-07T21:15:58.754Z,66.58
2022-08-07T21:18:29.484Z,65.73
2022-08-07T21:20:59.881Z,67.53
2022-08-07T21:23:26.379Z,68.08
2022-08-07T21:26:12.086Z,66.97
2022-08-07T21:28:48.705Z,67.35
2022-08-07T21:31:20.849Z,66.92
2022-08-07T21:34:02.860Z,67.53
2022-08-07T21:36:50.323Z,68.93
2022-08-07T21:39:45.457Z,67.64
2022-08-07T21:42:14.944Z,69.05
2022-08-07T21:44:52.994Z,68.96
2022-08-07T21:47:22.847Z,69.62
2022-08-07T21:50:01.186Z,70.04
2022-08-07T21:52:43.749Z,70.10
2022-08-07T21:55:28.309Z,69.53
2022-08-07T21:58:07.916Z,69.33
2022-08-07T22:00:39.926Z,68.38
2022-08-07T22:03:31.741Z,68.90
2022-08-07T22:05:58.848Z,69.48
2022-08-07T22:08:26.591Z,69.35
2022-08-07T22:10:55.289Z,68.85
2022-08-07T22:13:24.436Z,69.15
2022-08-07T22:16:43.091Z,70.34
2022-08-07T22:19:18.238Z,69.98
2022-08-07T22:22:04.681Z,70.42
2022-08-07T22:24:44.021Z,70.03
2022-08-07T22:27:19.110Z,69.83
2022-08-07T22:29:50.189Z,70.37
2022-08-07T22:32:25.856Z,71.94
2022-08-07T22:34:53.344Z,71.24
2022-08-07T22:37:19.874Z,71.77
2022-08-07T22:39:52.448Z,71.75
2022-08-07T22:42:54.137Z,71.64
2022-08-07T22:46:04.867Z,72.39
2022-08-07T22:48:31.352Z,72.63
2022-08-07T22:50:55.531Z,71.73
2022-08-07T22:54:05.366Z,73.33
2022-08-07T22:56:30.444Z,71.88
2022-08-07T22:59:23.218Z,72.59
2022-08-07T23:01:59.215Z,73.27
2022-08-07T23:04:32.943Z,72.57
2022-08-07T23:07:39.798Z,72.67
2022-08-07T23:10:37.967Z,72.38
2022-08-07T23:12:54.383Z,72.53
2022-08-07T23:16:06.483Z,72.86
2022-08-07T23:18:25.786Z,74.14
2022-08-07T23:21:07.389Z,73.82
2022-08-07T23:24:04.098Z,73.87
2022-08-07T23:26:50.342Z,73.61
2022-08-07T23:29:43.832Z,72.94
2022-08-07T23:34:21.523Z,73.58
2022-08-07T23:35:51.211Z,72.68
2022-08-07T23:38:36.669Z,73.55
2022-08-07T23:41:33.347Z,72.12
2022-08-07T23:44:01.198Z,72.41
2022-08-07T23:46:39.682Z,72.72
2022-08-07T23:49:49.891Z,73.98
2022-08-07T23:52:58.477Z,73.36
2022-08-07T23:55:10.015Z,74.20
2022-08-07T23:57:58.458Z,75.19
